createdAt,value
2022-12-09T00:02:15.869Z,7.72
2022-12-09T00:04:42.411Z,7.28
2022-12-09T00:07:08.844Z,6.25
2022-12-09T00:09:35.439Z,7.15
2022-12-09T00:12:02.059Z,6.93
2022-12-09T00:14:28.632Z,6.82
2022-12-09T00:16:55.155Z,5.90
2022-12-09T00:19:21.464Z,6.95
2022-12-09T00:21:47.848Z,7.65
2022-12-09T00:24:14.323Z,6.45
2022-12-09T00:26:40.946Z,7.47
2022-12-09T00:29:07.339Z,8.52
2022-12-09T00:31:34.889Z,6.53
2022-12-09T00:34:03.492Z,6.88
2022-12-09T00:36:30.086Z,7.90
2022-12-09T00:38:57.276Z,7.13
2022-12-09T00:41:24.011Z,6.82
2022-12-09T00:43:50.522Z,7.07
2022-12-09T00:46:17.096Z,6.60
2022-12-09T00:48:45.555Z,6.53
2022-12-09T00:51:14.462Z,6.57
2022-12-09T00:53:41.231Z,6.80
2022-12-09T00:56:08.023Z,7.85
2022-12-09T00:58:34.751Z,6.57
2022-12-09T01:01:01.298Z,7.03
2022-12-09T01:03:27.897Z,8.27
2022-12-09T01:05:55.100Z,7.47
2022-12-09T01:08:21.725Z,7.18
2022-12-09T01:10:48.203Z,7.72
2022-12-09T01:13:15.038Z,7.55
2022-12-09T01:15:41.670Z,7.78
2022-12-09T01:18:08.432Z,7.93
2022-12-09T01:20:34.924Z,8.35
2022-12-09T01:23:01.757Z,8.02
2022-12-09T01:25:28.354Z,7.35
2022-12-09T01:27:54.936Z,8.60
2022-12-09T01:30:21.613Z,9.02
2022-12-09T01:32:48.441Z,8.45
2022-12-09T01:35:15.060Z,7.18
2022-12-09T01:37:41.508Z,7.82
2022-12-09T01:40:09.978Z,7.68
2022-12-09T01:42:36.972Z,7.57
2022-12-09T01:45:35.852Z,7.80
2022-12-09T01:48:07.181Z,8.40
2022-12-09T01:50:34.979Z,7.68
2022-12-09T01:53:01.641Z,8.18
2022-12-09T01:55:27.987Z,7.72
2022-12-09T01:57:54.267Z,7.60
2022-12-09T02:00:20.923Z,9.05
2022-12-09T02:02:48.864Z,8.43
2022-12-09T02:05:15.515Z,7.60
2022-12-09T02:07:42.108Z,7.57
2022-12-09T02:10:11.110Z,7.47
2022-12-09T02:12:40.523Z,7.63
2022-12-09T02:15:12.149Z,7.72
2022-12-09T02:17:40.272Z,7.40
2022-12-09T02:20:09.920Z,7.47
2022-12-09T02:22:42.290Z,7.85
2022-12-09T02:25:17.835Z,8.35
2022-12-09T02:27:48.507Z,7.95
2022-12-09T02:30:20.536Z,8.27
2022-12-09T02:32:52.038Z,7.90
2022-12-09T02:35:22.575Z,7.00
2022-12-09T02:37:52.159Z,8.32
2022-12-09T02:40:21.267Z,7.53
2022-12-09T02:42:48.678Z,7.53
2022-12-09T02:45:15.966Z,6.90
2022-12-09T02:47:45.478Z,8.30
2022-12-09T02:50:13.815Z,7.40
2022-12-09T02:52:42.200Z,7.93
2022-12-09T02:55:10.058Z,7.00
2022-12-09T02:57:38.042Z,7.85
2022-12-09T03:00:06.464Z,7.43
2022-12-09T03:02:35.746Z,7.97
2022-12-09T03:05:21.361Z,7.93
2022-12-09T03:07:47.906Z,8.38
2022-12-09T03:10:24.523Z,7.45
2022-12-09T03:15:17.566Z,7.70
2022-12-09T03:17:45.365Z,7.10
2022-12-09T03:20:17.315Z,7.53
2022-12-09T03:22:44.961Z,9.13
2022-12-09T03:25:17.185Z,10.02
2022-12-09T03:27:50.501Z,8.63
2022-12-09T03:30:18.016Z,9.07
2022-12-09T03:32:46.046Z,8.23
2022-12-09T03:35:21.536Z,8.15
2022-12-09T03:37:49.515Z,9.13
2022-12-09T03:40:17.975Z,8.80
2022-12-09T03:42:49.814Z,8.32
2022-12-09T03:45:18.345Z,8.05
2022-12-09T03:47:44.770Z,7.78
2022-12-09T03:50:12.174Z,7.30
2022-12-09T03:52:58.900Z,8.02
2022-12-09T03:56:03.940Z,9.00
2022-12-09T03:58:32.927Z,7.32
2022-12-09T04:01:00.122Z,7.53
2022-12-09T04:03:26.647Z,7.32
2022-12-09T04:05:53.036Z,7.43
2022-12-09T04:08:19.349Z,7.13
2022-12-09T04:10:45.930Z,8.80
2022-12-09T04:13:12.475Z,7.78
2022-12-09T04:15:39.206Z,8.20
2022-12-09T04:18:05.675Z,7.90
2022-12-09T04:20:32.117Z,7.45
2022-12-09T04:22:58.606Z,7.70
2022-12-09T04:25:24.961Z,7.53
2022-12-09T04:27:52.168Z,7.50
2022-12-09T04:30:18.497Z,7.97
2022-12-09T04:32:45.111Z,7.75
2022-12-09T04:35:11.908Z,7.43
2022-12-09T04:37:38.274Z,7.00
2022-12-09T04:40:06.104Z,7.30
2022-12-09T04:42:32.863Z,7.97
2022-12-09T04:44:59.454Z,7.55
2022-12-09T04:47:25.814Z,6.78
2022-12-09T04:49:52.381Z,8.63
2022-12-09T04:52:19.181Z,7.85
2022-12-09T04:54:45.559Z,8.10
2022-12-09T04:57:15.205Z,8.93
2022-12-09T04:59:41.495Z,8.93
2022-12-09T05:02:07.906Z,8.15
2022-12-09T05:04:34.519Z,8.30
2022-12-09T05:07:01.017Z,8.23
2022-12-09T05:09:28.007Z,8.00
2022-12-09T05:11:56.414Z,7.40
2022-12-09T05:14:23.089Z,7.47
2022-12-09T05:16:49.602Z,7.78
2022-12-09T05:19:16.082Z,7.43
2022-12-09T05:21:44.079Z,6.82
2022-12-09T05:24:10.670Z,8.27
2022-12-09T05:26:37.321Z,8.10
2022-12-09T05:29:04.133Z,8.43
2022-12-09T05:31:31.048Z,8.52
2022-12-09T05:33:58.540Z,8.48
2022-12-09T05:36:25.745Z,8.20
2022-12-09T05:38:52.766Z,7.90
2022-12-09T05:41:19.753Z,8.25
2022-12-09T05:43:46.509Z,7.85
2022-12-09T05:46:13.768Z,7.60
2022-12-09T05:48:40.592Z,7.88
2022-12-09T05:51:08.662Z,7.88
2022-12-09T05:53:35.362Z,7.70
2022-12-09T05:56:02.271Z,8.23
2022-12-09T05:58:29.035Z,8.77
2022-12-09T06:00:58.104Z,8.50
2022-12-09T06:03:25.088Z,8.98
2022-12-09T06:05:52.175Z,9.50
2022-12-09T06:08:18.909Z,10.43
2022-12-09T06:10:45.589Z,9.43
2022-12-09T06:13:12.235Z,10.27
2022-12-09T06:15:38.594Z,10.15
2022-12-09T06:18:05.126Z,9.68
2022-12-09T06:20:32.056Z,10.77
2022-12-09T06:22:58.906Z,10.02
2022-12-09T06:25:25.434Z,10.07
2022-12-09T06:27:52.709Z,9.88
2022-12-09T06:30:19.737Z,11.00
2022-12-09T06:32:46.198Z,9.43
2022-12-09T06:35:13.750Z,9.05
2022-12-09T06:37:40.473Z,8.63
2022-12-09T06:40:07.343Z,8.30
2022-12-09T06:42:33.755Z,8.00
2022-12-09T06:45:00.570Z,9.02
2022-12-09T06:47:27.328Z,8.23
2022-12-09T06:49:54.108Z,8.02
2022-12-09T06:52:20.859Z,9.98
2022-12-09T06:54:47.478Z,8.45
2022-12-09T06:57:15.039Z,8.60
2022-12-09T06:59:41.587Z,8.43
2022-12-09T07:02:09.312Z,7.65
2022-12-09T07:04:36.410Z,7.88
2022-12-09T07:07:03.348Z,7.90
2022-12-09T07:09:30.190Z,8.25
2022-12-09T07:11:57.010Z,7.93
2022-12-09T07:14:23.490Z,9.32
2022-12-09T07:16:50.022Z,10.60
2022-12-09T07:19:18.562Z,10.25
2022-12-09T07:21:45.585Z,9.73
2022-12-09T07:24:15.292Z,9.77
2022-12-09T07:26:41.987Z,10.90
2022-12-09T07:29:08.694Z,9.57
2022-12-09T07:31:35.569Z,9.07
2022-12-09T07:34:02.906Z,9.35
2022-12-09T07:36:30.441Z,9.77
2022-12-09T07:39:01.127Z,9.82
2022-12-09T07:41:27.623Z,8.95
2022-12-09T07:43:55.058Z,9.80
2022-12-09T07:46:22.776Z,10.65
2022-12-09T07:48:49.779Z,11.00
2022-12-09T07:51:17.004Z,12.40
2022-12-09T07:53:43.838Z,10.38
2022-12-09T07:56:11.992Z,11.73
2022-12-09T07:58:39.025Z,14.07
2022-12-09T08:01:07.113Z,14.55
2022-12-09T08:03:34.138Z,13.82
2022-12-09T08:06:01.388Z,14.73
2022-12-09T08:08:28.466Z,13.30
2022-12-09T08:10:55.418Z,12.25
2022-12-09T08:13:21.817Z,13.20
2022-12-09T08:15:48.176Z,12.48
2022-12-09T08:18:14.949Z,12.07
2022-12-09T08:20:41.860Z,12.23
2022-12-09T08:23:08.391Z,11.50
2022-12-09T08:25:34.806Z,11.75
2022-12-09T08:28:02.005Z,11.70
2022-12-09T08:30:28.620Z,11.65
2022-12-09T08:32:55.511Z,11.07
2022-12-09T08:35:22.360Z,12.27
2022-12-09T08:37:49.096Z,11.77
2022-12-09T08:40:15.855Z,12.05
2022-12-09T08:42:42.607Z,11.95
2022-12-09T08:45:09.308Z,12.57
2022-12-09T08:47:36.263Z,11.57
2022-12-09T08:50:03.309Z,10.85
2022-12-09T08:52:31.454Z,10.80
2022-12-09T08:54:59.409Z,11.93
2022-12-09T08:57:25.755Z,10.77
2022-12-09T08:59:52.005Z,10.98
2022-12-09T09:02:18.464Z,10.38
2022-12-09T09:04:46.221Z,10.45
2022-12-09T09:07:13.216Z,10.43
2022-12-09T09:09:40.436Z,10.85
2022-12-09T09:12:06.997Z,11.23
2022-12-09T09:14:33.503Z,10.73
2022-12-09T09:17:00.147Z,11.55
2022-12-09T09:19:26.888Z,10.30
2022-12-09T09:21:53.997Z,10.38
2022-12-09T09:24:22.252Z,9.93
2022-12-09T09:26:50.134Z,11.18
2022-12-09T09:29:17.660Z,10.43
2022-12-09T09:31:44.262Z,10.50
2022-12-09T09:34:11.295Z,9.55
2022-12-09T09:36:38.399Z,10.43
2022-12-09T09:39:05.289Z,10.35
2022-12-09T09:41:44.375Z,9.88
2022-12-09T09:44:34.055Z,10.77
2022-12-09T09:47:02.894Z,10.73
2022-12-09T09:49:29.883Z,11.40
2022-12-09T09:51:56.980Z,10.57
2022-12-09T09:54:23.584Z,10.85
2022-12-09T09:57:09.314Z,12.02
2022-12-09T09:59:39.322Z,10.90
2022-12-09T10:02:15.226Z,12.30
2022-12-09T10:04:45.411Z,12.88
2022-12-09T10:07:15.189Z,11.63
2022-12-09T10:10:03.269Z,13.95
2022-12-09T10:12:44.531Z,12.38
2022-12-09T10:15:17.936Z,11.68
2022-12-09T10:17:55.430Z,12.90
2022-12-09T10:20:28.935Z,11.20
2022-12-09T10:22:59.189Z,11.57
2022-12-09T10:25:27.825Z,11.15
2022-12-09T10:28:13.618Z,11.57
2022-12-09T10:30:44.166Z,10.80
2022-12-09T10:33:15.282Z,10.82
2022-12-09T10:35:42.476Z,11.38
2022-12-09T10:38:11.076Z,11.52
2022-12-09T10:40:46.959Z,11.50
2022-12-09T10:43:57.405Z,11.63
2022-12-09T10:46:24.717Z,11.70
2022-12-09T10:48:54.008Z,10.32
2022-12-09T10:51:27.011Z,11.10
2022-12-09T10:53:56.873Z,11.07
2022-12-09T10:56:23.480Z,10.50
2022-12-09T10:58:50.212Z,10.95
2022-12-09T11:01:17.463Z,10.25
2022-12-09T11:03:46.786Z,10.32
2022-12-09T11:06:13.431Z,10.27
2022-12-09T11:08:41.881Z,9.98
2022-12-09T11:11:09.364Z,9.88
2022-12-09T11:13:39.112Z,10.35
2022-12-09T11:16:08.110Z,10.43
2022-12-09T11:18:44.337Z,9.70
2022-12-09T11:21:49.539Z,10.00
2022-12-09T11:24:23.139Z,10.27
2022-12-09T11:26:49.639Z,9.68
2022-12-09T11:29:19.451Z,9.70
2022-12-09T11:31:46.584Z,9.65
2022-12-09T11:34:18.861Z,8.82
2022-12-09T11:36:50.574Z,9.43
2022-12-09T11:39:19.542Z,8.45
2022-12-09T11:42:25.834Z,8.85
2022-12-09T11:44:52.144Z,9.43
2022-12-09T11:47:25.280Z,9.48
2022-12-09T11:49:54.420Z,8.00
2022-12-09T11:52:25.766Z,8.88
2022-12-09T11:54:53.795Z,8.98
2022-12-09T11:57:29.232Z,9.30
2022-12-09T11:59:58.679Z,8.48
2022-12-09T12:02:54.776Z,9.27
2022-12-09T12:05:26.746Z,8.90
2022-12-09T12:08:14.398Z,8.77
2022-12-09T12:10:46.584Z,7.85
2022-12-09T12:13:27.929Z,7.47
2022-12-09T12:16:03.502Z,7.97
2022-12-09T12:18:32.611Z,7.95
2022-12-09T12:21:17.908Z,7.80
2022-12-09T12:23:59.659Z,7.05
2022-12-09T12:26:28.564Z,6.93
2022-12-09T12:29:07.255Z,7.65
2022-12-09T12:31:46.610Z,8.38
2022-12-09T12:34:33.060Z,8.30
2022-12-09T12:37:20.024Z,8.23
2022-12-09T12:39:49.112Z,7.50
2022-12-09T12:42:15.398Z,7.30
2022-12-09T12:45:32.963Z,8.30
2022-12-09T12:48:03.323Z,7.50
2022-12-09T12:50:32.792Z,7.32
2022-12-09T12:53:18.234Z,8.07
2022-12-09T12:55:47.629Z,7.75
2022-12-09T12:58:23.604Z,7.78
2022-12-09T13:00:49.918Z,7.07
2022-12-09T13:03:26.045Z,7.53
2022-12-09T13:05:53.587Z,7.28
2022-12-09T13:08:19.911Z,8.52
2022-12-09T13:10:52.582Z,8.60
2022-12-09T13:13:27.966Z,8.25
2022-12-09T13:15:56.692Z,7.93
2022-12-09T13:18:23.030Z,8.30
2022-12-09T13:20:53.786Z,8.90
2022-12-09T13:23:38.687Z,8.32
2022-12-09T13:26:08.186Z,7.70
2022-12-09T13:28:37.439Z,7.47
2022-12-09T13:31:08.122Z,7.50
2022-12-09T13:33:42.194Z,7.45
2022-12-09T13:36:14.631Z,7.03
2022-12-09T13:38:42.508Z,7.13
2022-12-09T13:41:27.271Z,7.15
2022-12-09T13:43:54.404Z,7.43
2022-12-09T13:46:22.542Z,7.25
2022-12-09T13:48:49.439Z,6.35
2022-12-09T13:51:16.864Z,7.32
2022-12-09T13:53:50.896Z,7.30
2022-12-09T13:56:31.636Z,7.40
2022-12-09T13:59:02.980Z,7.80
2022-12-09T14:01:48.244Z,7.97
2022-12-09T14:04:29.149Z,7.93
2022-12-09T14:06:58.695Z,8.15
2022-12-09T14:09:28.575Z,7.53
2022-12-09T14:12:00.442Z,7.63
2022-12-09T14:14:26.690Z,8.60
2022-12-09T14:16:52.915Z,7.57
2022-12-09T14:19:25.231Z,6.93
2022-12-09T14:22:16.941Z,7.57
2022-12-09T14:24:52.244Z,7.05
2022-12-09T14:27:21.842Z,6.82
2022-12-09T14:30:02.489Z,6.93
2022-12-09T14:32:30.838Z,7.50
2022-12-09T14:35:09.503Z,7.38
2022-12-09T14:37:45.113Z,7.20
2022-12-09T14:40:25.222Z,7.25
2022-12-09T14:42:55.592Z,6.93
2022-12-09T14:45:28.524Z,7.18
2022-12-09T14:47:56.046Z,7.57
2022-12-09T14:50:23.346Z,7.97
2022-12-09T14:52:51.870Z,7.63
2022-12-09T14:55:18.499Z,7.43
2022-12-09T14:57:46.505Z,6.97
2022-12-09T15:00:30.525Z,6.75
2022-12-09T15:03:30.556Z,7.60
2022-12-09T15:06:00.528Z,7.05
2022-12-09T15:08:37.144Z,7.32
2022-12-09T15:13:30.711Z,7.40
2022-12-09T15:15:57.122Z,7.30
2022-12-09T15:18:24.462Z,7.68
2022-12-09T15:20:52.613Z,7.50
2022-12-09T15:23:21.479Z,7.40
2022-12-09T15:25:52.855Z,7.35
2022-12-09T15:28:26.080Z,6.97
2022-12-09T15:31:00.448Z,7.88
2022-12-09T15:33:28.991Z,7.35
2022-12-09T15:36:03.699Z,8.00
2022-12-09T15:38:39.051Z,7.45
2022-12-09T15:41:34.065Z,7.85
2022-12-09T15:44:02.296Z,8.27
2022-12-09T15:46:30.110Z,8.18
2022-12-09T15:48:57.677Z,7.72
2022-12-09T15:51:26.279Z,7.68
2022-12-09T15:54:01.044Z,8.77
2022-12-09T15:56:32.879Z,8.50
2022-12-09T15:59:03.963Z,8.38
2022-12-09T16:01:30.938Z,8.80
2022-12-09T16:03:58.446Z,8.75
2022-12-09T16:06:27.551Z,10.05
2022-12-09T16:08:54.254Z,11.68
2022-12-09T16:11:37.294Z,11.35
2022-12-09T16:14:03.941Z,12.88
2022-12-09T16:16:36.443Z,11.88
2022-12-09T16:19:02.878Z,13.07
2022-12-09T16:21:32.133Z,12.45
2022-12-09T16:24:05.853Z,12.50
2022-12-09T16:26:34.342Z,12.82
2022-12-09T16:29:01.891Z,10.77
2022-12-09T16:31:28.475Z,11.43
2022-12-09T16:33:55.277Z,11.95
2022-12-09T16:36:24.801Z,11.48
2022-12-09T16:39:09.311Z,10.82
2022-12-09T16:41:56.071Z,9.82
2022-12-09T16:44:27.788Z,9.15
2022-12-09T16:47:08.619Z,9.88
2022-12-09T16:49:34.867Z,10.85
2022-12-09T16:52:01.182Z,9.65
2022-12-09T16:54:27.471Z,9.45
2022-12-09T16:56:55.601Z,9.98
2022-12-09T16:59:22.020Z,10.38
2022-12-09T17:01:48.687Z,9.55
2022-12-09T17:04:18.019Z,10.07
2022-12-09T17:06:44.522Z,10.50
2022-12-09T17:09:11.894Z,9.25
2022-12-09T17:11:38.181Z,9.07
2022-12-09T17:14:04.726Z,8.93
2022-12-09T17:16:31.191Z,9.73
2022-12-09T17:18:57.558Z,10.23
2022-12-09T17:21:23.890Z,10.30
2022-12-09T17:23:50.292Z,10.43
2022-12-09T17:26:17.949Z,9.20
2022-12-09T17:28:44.765Z,9.70
2022-12-09T17:31:13.096Z,9.32
2022-12-09T17:33:39.431Z,9.70
2022-12-09T17:36:06.502Z,9.27
2022-12-09T17:38:33.168Z,9.77
2022-12-09T17:41:09.594Z,9.77
2022-12-09T17:43:36.205Z,8.80
2022-12-09T17:46:03.501Z,8.90
2022-12-09T17:48:30.667Z,9.13
2022-12-09T17:50:57.142Z,9.32
2022-12-09T17:53:23.766Z,9.52
2022-12-09T17:55:50.315Z,9.50
2022-12-09T17:58:16.631Z,9.40
2022-12-09T18:00:42.985Z,10.27
2022-12-09T18:03:17.755Z,8.75
2022-12-09T18:05:48.601Z,9.02
2022-12-09T18:08:14.957Z,9.50
2022-12-09T18:10:42.124Z,9.63
2022-12-09T18:13:08.502Z,9.10
2022-12-09T18:15:37.658Z,10.35
2022-12-09T18:18:04.047Z,9.63
2022-12-09T18:20:30.315Z,10.63
2022-12-09T18:22:56.765Z,9.05
2022-12-09T18:25:23.084Z,11.02
2022-12-09T18:27:49.589Z,10.25
2022-12-09T18:30:16.831Z,9.75
2022-12-09T18:32:43.106Z,11.05
2022-12-09T18:35:09.713Z,10.90
2022-12-09T18:37:36.130Z,11.00
2022-12-09T18:40:02.492Z,11.98
2022-12-09T18:42:28.762Z,11.15
2022-12-09T18:44:55.090Z,10.63
2022-12-09T18:47:21.442Z,10.38
2022-12-09T18:49:47.738Z,10.93
2022-12-09T18:52:14.112Z,11.27
2022-12-09T18:54:40.566Z,10.93
2022-12-09T18:57:06.832Z,11.38
2022-12-09T18:59:33.195Z,10.60
2022-12-09T19:01:59.468Z,10.55
2022-12-09T19:04:27.217Z,10.02
2022-12-09T19:06:58.251Z,10.65
2022-12-09T19:09:26.491Z,10.05
2022-12-09T19:11:53.010Z,8.88
2022-12-09T19:14:20.114Z,10.20
2022-12-09T19:16:46.899Z,9.55
2022-12-09T19:19:14.368Z,9.25
2022-12-09T19:21:41.187Z,7.88
2022-12-09T19:24:08.164Z,7.80
2022-12-09T19:26:36.478Z,9.75
2022-12-09T19:29:04.612Z,10.23
2022-12-09T19:31:38.449Z,10.13
2022-12-09T19:34:06.202Z,9.30
2022-12-09T19:36:35.637Z,10.45
2022-12-09T19:39:02.823Z,10.90
2022-12-09T19:41:29.224Z,10.73
2022-12-09T19:43:56.039Z,11.30
2022-12-09T19:46:22.993Z,11.35
2022-12-09T19:48:49.632Z,11.43
2022-12-09T19:51:16.645Z,10.85
2022-12-09T19:53:43.341Z,11.63
2022-12-09T19:56:18.105Z,11.90
2022-12-09T19:58:44.445Z,10.38
2022-12-09T20:01:15.610Z,10.82
2022-12-09T20:03:43.458Z,11.02
2022-12-09T20:06:11.492Z,11.85
2022-12-09T20:08:38.258Z,12.50
2022-12-09T20:11:07.399Z,11.55
2022-12-09T20:13:34.766Z,11.20
2022-12-09T20:16:04.818Z,11.15
2022-12-09T20:18:31.165Z,10.32
2022-12-09T20:21:00.235Z,10.80
2022-12-09T20:23:26.707Z,12.57
2022-12-09T20:25:53.026Z,10.10
2022-12-09T20:28:19.307Z,12.00
2022-12-09T20:30:45.607Z,10.93
2022-12-09T20:33:11.863Z,10.90
2022-12-09T20:35:38.318Z,11.02
2022-12-09T20:38:05.103Z,10.57
2022-12-09T20:40:31.443Z,12.27
2022-12-09T20:42:57.822Z,11.70
2022-12-09T20:45:24.081Z,12.18
2022-12-09T20:47:52.738Z,11.32
2022-12-09T20:50:19.064Z,11.27
2022-12-09T20:52:45.297Z,10.95
2022-12-09T20:55:12.509Z,11.32
2022-12-09T20:57:38.784Z,11.40
2022-12-09T21:00:05.738Z,11.65
2022-12-09T21:02:39.323Z,12.50
2022-12-09T21:05:07.208Z,12.27
2022-12-09T21:07:33.527Z,12.18
2022-12-09T21:09:59.861Z,10.50
2022-12-09T21:12:26.277Z,10.77
2022-12-09T21:14:52.744Z,10.38
2022-12-09T21:17:19.116Z,10.95
2022-12-09T21:19:45.429Z,9.75
2022-12-09T21:22:11.779Z,10.38
2022-12-09T21:24:38.147Z,10.90
2022-12-09T21:27:04.488Z,10.65
2022-12-09T21:29:32.437Z,10.50
2022-12-09T21:31:59.460Z,11.25
2022-12-09T21:34:25.976Z,10.70
2022-12-09T21:36:52.362Z,10.38
2022-12-09T21:39:19.364Z,10.73
2022-12-09T21:41:45.740Z,11.00
2022-12-09T21:44:17.391Z,10.40
2022-12-09T21:46:44.375Z,11.00
2022-12-09T21:49:11.013Z,11.65
2022-12-09T21:51:37.401Z,11.18
2022-12-09T21:54:04.210Z,11.02
2022-12-09T21:56:31.273Z,12.25
2022-12-09T21:58:58.639Z,11.07
2022-12-09T22:01:32.728Z,10.82
2022-12-09T22:04:00.361Z,10.07
2022-12-09T22:06:27.475Z,10.95
2022-12-09T22:08:53.788Z,11.10
2022-12-09T22:11:24.511Z,11.88
2022-12-09T22:13:51.434Z,11.50
2022-12-09T22:16:22.583Z,12.55
2022-12-09T22:18:49.601Z,12.40
2022-12-09T22:21:26.360Z,12.43
2022-12-09T22:23:57.526Z,12.90
2022-12-09T22:26:24.248Z,12.13
2022-12-09T22:28:50.997Z,12.23
2022-12-09T22:31:25.656Z,13.18
2022-12-09T22:33:53.089Z,12.10
2022-12-09T22:36:20.029Z,11.40
2022-12-09T22:38:46.755Z,12.23
2022-12-09T22:41:14.461Z,11.23
2022-12-09T22:43:41.411Z,11.23
2022-12-09T22:46:09.239Z,10.50
2022-12-09T22:48:35.783Z,10.80
2022-12-09T22:51:03.867Z,12.13
2022-12-09T22:53:30.202Z,13.10
2022-12-09T22:55:56.520Z,11.95
2022-12-09T22:58:22.866Z,11.90
2022-12-09T23:00:49.195Z,12.40
2022-12-09T23:03:15.646Z,12.02
2022-12-09T23:05:42.200Z,11.45
2022-12-09T23:08:08.801Z,13.45
2022-12-09T23:10:35.264Z,12.75
2022-12-09T23:13:01.626Z,12.80
2022-12-09T23:15:28.037Z,12.82
2022-12-09T23:17:54.322Z,12.10
2022-12-09T23:20:20.754Z,14.05
2022-12-09T23:22:47.124Z,12.00
2022-12-09T23:25:13.560Z,12.55
2022-12-09T23:27:39.878Z,12.50
2022-12-09T23:30:06.978Z,12.90
2022-12-09T23:32:33.413Z,13.00
2022-12-09T23:35:04.373Z,12.52
2022-12-09T23:37:33.524Z,12.88
2022-12-09T23:39:59.844Z,12.80
2022-12-09T23:42:26.194Z,12.80
2022-12-09T23:44:52.516Z,13.55
2022-12-09T23:47:18.791Z,12.18
2022-12-09T23:49:45.088Z,12.80
2022-12-09T23:52:11.446Z,11.75
2022-12-09T23:54:37.820Z,11.77
2022-12-09T23:57:04.105Z,13.50
2022-12-09T23:59:30.411Z,12.32
